sensor_id;sensor_type;location;lat;lon;timestamp;P1;durP1;ratioP1;P2;durP2;ratioP2
66487;SDS011;53304;54.550;18.526;2024-03-23T00:53:55;4.47;;;1.80;;
66487;SDS011;53304;54.550;18.526;2024-03-23T00:56:20;3.70;;;1.60;;
66487;SDS011;53304;54.550;18.526;2024-03-23T00:58:49;4.60;;;1.73;;
66487;SDS011;53304;54.550;18.526;2024-03-23T01:01:15;5.43;;;2.28;;
66487;SDS011;53304;54.550;18.526;2024-03-23T01:03:40;6.18;;;2.13;;
66487;SDS011;53304;54.550;18.526;2024-03-23T01:06:06;7.35;;;2.22;;
66487;SDS011;53304;54.550;18.526;2024-03-23T01:08:36;5.75;;;1.80;;
66487;SDS011;53304;54.550;18.526;2024-03-23T01:11:03;5.30;;;1.90;;
66487;SDS011;53304;54.550;18.526;2024-03-23T01:13:31;6.28;;;1.98;;
66487;SDS011;53304;54.550;18.526;2024-03-23T01:15:56;5.35;;;2.03;;
66487;SDS011;53304;54.550;18.526;2024-03-23T01:18:22;5.15;;;1.95;;
66487;SDS011;53304;54.550;18.526;2024-03-23T01:20:54;4.00;;;1.65;;
66487;SDS011;53304;54.550;18.526;2024-03-23T01:23:19;5.00;;;1.83;;
66487;SDS011;53304;54.550;18.526;2024-03-23T01:25:53;4.75;;;1.55;;
66487;SDS011;53304;54.550;18.526;2024-03-23T01:28:22;4.35;;;2.03;;
66487;SDS011;53304;54.550;18.526;2024-03-23T01:30:49;5.13;;;1.90;;
66487;SDS011;53304;54.550;18.526;2024-03-23T01:33:17;5.50;;;1.77;;
66487;SDS011;53304;54.550;18.526;2024-03-23T01:35:45;5.35;;;1.98;;
66487;SDS011;53304;54.550;18.526;2024-03-23T01:38:13;5.68;;;1.85;;
66487;SDS011;53304;54.550;18.526;2024-03-23T01:40:38;4.95;;;1.70;;
66487;SDS011;53304;54.550;18.526;2024-03-23T01:43:09;6.20;;;1.95;;
66487;SDS011;53304;54.550;18.526;2024-03-23T01:45:34;5.80;;;1.70;;
66487;SDS011;53304;54.550;18.526;2024-03-23T01:48:00;3.97;;;1.88;;
66487;SDS011;53304;54.550;18.526;2024-03-23T01:50:32;5.25;;;2.05;;
66487;SDS011;53304;54.550;18.526;2024-03-23T01:53:04;3.97;;;1.90;;
66487;SDS011;53304;54.550;18.526;2024-03-23T01:55:33;4.65;;;1.75;;
66487;SDS011;53304;54.550;18.526;2024-03-23T01:58:01;5.03;;;1.60;;
66487;SDS011;53304;54.550;18.526;2024-03-23T02:00:26;3.50;;;1.52;;
66487;SDS011;53304;54.550;18.526;2024-03-23T02:02:55;5.25;;;1.88;;
66487;SDS011;53304;54.550;18.526;2024-03-23T02:05:21;4.22;;;1.48;;
66487;SDS011;53304;54.550;18.526;2024-03-23T02:07:47;4.72;;;1.85;;
66487;SDS011;53304;54.550;18.526;2024-03-23T02:10:17;7.72;;;2.17;;
66487;SDS011;53304;54.550;18.526;2024-03-23T02:12:42;5.53;;;1.90;;
66487;SDS011;53304;54.550;18.526;2024-03-23T02:15:08;4.70;;;2.13;;
66487;SDS011;53304;54.550;18.526;2024-03-23T02:17:34;3.08;;;1.60;;
66487;SDS011;53304;54.550;18.526;2024-03-23T02:20:00;5.60;;;1.65;;
66487;SDS011;53304;54.550;18.526;2024-03-23T02:22:35;4.13;;;1.50;;
66487;SDS011;53304;54.550;18.526;2024-03-23T02:25:06;5.88;;;1.52;;
66487;SDS011;53304;54.550;18.526;2024-03-23T02:27:32;5.22;;;1.60;;
66487;SDS011;53304;54.550;18.526;2024-03-23T02:29:58;5.47;;;1.98;;
66487;SDS011;53304;54.550;18.526;2024-03-23T02:32:24;4.65;;;2.17;;
66487;SDS011;53304;54.550;18.526;2024-03-23T02:34:49;4.63;;;1.80;;
66487;SDS011;53304;54.550;18.526;2024-03-23T02:37:14;4.80;;;1.95;;
66487;SDS011;53304;54.550;18.526;2024-03-23T02:39:40;4.68;;;1.60;;
66487;SDS011;53304;54.550;18.526;2024-03-23T02:42:05;6.00;;;1.48;;
66487;SDS011;53304;54.550;18.526;2024-03-23T02:44:36;5.53;;;2.05;;
66487;SDS011;53304;54.550;18.526;2024-03-23T02:47:04;5.28;;;1.80;;
66487;SDS011;53304;54.550;18.526;2024-03-23T02:49:29;4.93;;;1.90;;
66487;SDS011;53304;54.550;18.526;2024-03-23T02:51:55;5.57;;;1.80;;
66487;SDS011;53304;54.550;18.526;2024-03-23T02:54:22;5.72;;;1.60;;
66487;SDS011;53304;54.550;18.526;2024-03-23T02:56:48;4.43;;;1.50;;
66487;SDS011;53304;54.550;18.526;2024-03-23T02:59:13;7.30;;;2.20;;
66487;SDS011;53304;54.550;18.526;2024-03-23T03:01:38;5.70;;;1.90;;
66487;SDS011;53304;54.550;18.526;2024-03-23T03:04:04;4.30;;;1.80;;
66487;SDS011;53304;54.550;18.526;2024-03-23T03:06:31;5.38;;;2.15;;
66487;SDS011;53304;54.550;18.526;2024-03-23T03:08:59;4.63;;;1.80;;
66487;SDS011;53304;54.550;18.526;2024-03-23T03:11:25;6.35;;;1.92;;
66487;SDS011;53304;54.550;18.526;2024-03-23T03:13:55;4.40;;;1.50;;
66487;SDS011;53304;54.550;18.526;2024-03-23T03:16:20;4.80;;;1.80;;
66487;SDS011;53304;54.550;18.526;2024-03-23T03:18:46;4.80;;;1.73;;
66487;SDS011;53304;54.550;18.526;2024-03-23T03:21:14;3.33;;;1.58;;
66487;SDS011;53304;54.550;18.526;2024-03-23T03:23:39;3.08;;;1.40;;
66487;SDS011;53304;54.550;18.526;2024-03-23T03:26:05;6.85;;;1.80;;
66487;SDS011;53304;54.550;18.526;2024-03-23T03:28:33;5.45;;;1.83;;
66487;SDS011;53304;54.550;18.526;2024-03-23T03:31:01;4.75;;;1.88;;
66487;SDS011;53304;54.550;18.526;2024-03-23T03:33:27;6.25;;;1.95;;
66487;SDS011;53304;54.550;18.526;2024-03-23T03:35:53;4.32;;;1.80;;
66487;SDS011;53304;54.550;18.526;2024-03-23T03:38:18;4.05;;;1.50;;
66487;SDS011;53304;54.550;18.526;2024-03-23T03:40:44;5.43;;;1.50;;
66487;SDS011;53304;54.550;18.526;2024-03-23T03:43:09;5.90;;;1.75;;
66487;SDS011;53304;54.550;18.526;2024-03-23T03:45:37;3.95;;;1.75;;
66487;SDS011;53304;54.550;18.526;2024-03-23T03:48:03;4.93;;;1.90;;
66487;SDS011;53304;54.550;18.526;2024-03-23T03:50:29;5.60;;;1.50;;
66487;SDS011;53304;54.550;18.526;2024-03-23T03:52:54;3.78;;;1.55;;
66487;SDS011;53304;54.550;18.526;2024-03-23T03:55:19;4.75;;;1.80;;
66487;SDS011;53304;54.550;18.526;2024-03-23T03:57:45;4.43;;;1.60;;
66487;SDS011;53304;54.550;18.526;2024-03-23T04:00:10;4.78;;;1.60;;
66487;SDS011;53304;54.550;18.526;2024-03-23T04:02:39;5.07;;;1.73;;
66487;SDS011;53304;54.550;18.526;2024-03-23T04:05:05;5.30;;;1.73;;
66487;SDS011;53304;54.550;18.526;2024-03-23T04:07:31;4.57;;;1.75;;
66487;SDS011;53304;54.550;18.526;2024-03-23T04:09:59;5.25;;;1.60;;
66487;SDS011;53304;54.550;18.526;2024-03-23T04:12:26;5.88;;;1.73;;
66487;SDS011;53304;54.550;18.526;2024-03-23T04:14:52;4.80;;;1.55;;
66487;SDS011;53304;54.550;18.526;2024-03-23T04:17:17;4.82;;;1.67;;
66487;SDS011;53304;54.550;18.526;2024-03-23T04:19:43;4.47;;;1.98;;
66487;SDS011;53304;54.550;18.526;2024-03-23T04:22:09;4.88;;;1.73;;
66487;SDS011;53304;54.550;18.526;2024-03-23T04:24:34;5.00;;;1.45;;
66487;SDS011;53304;54.550;18.526;2024-03-23T04:27:00;4.32;;;1.70;;
66487;SDS011;53304;54.550;18.526;2024-03-23T04:29:25;4.38;;;1.52;;
66487;SDS011;53304;54.550;18.526;2024-03-23T04:31:51;5.85;;;1.98;;
66487;SDS011;53304;54.550;18.526;2024-03-23T04:34:20;5.13;;;1.70;;
66487;SDS011;53304;54.550;18.526;2024-03-23T04:36:48;3.47;;;1.42;;
66487;SDS011;53304;54.550;18.526;2024-03-23T04:39:13;6.63;;;2.00;;
66487;SDS011;53304;54.550;18.526;2024-03-23T04:41:39;4.25;;;1.75;;
66487;SDS011;53304;54.550;18.526;2024-03-23T04:44:09;4.88;;;1.80;;
66487;SDS011;53304;54.550;18.526;2024-03-23T04:46:35;5.13;;;1.90;;
66487;SDS011;53304;54.550;18.526;2024-03-23T04:49:00;4.57;;;1.58;;
66487;SDS011;53304;54.550;18.526;2024-03-23T04:51:26;7.97;;;2.00;;
66487;SDS011;53304;54.550;18.526;2024-03-23T04:53:51;5.15;;;1.90;;
66487;SDS011;53304;54.550;18.526;2024-03-23T04:56:17;6.15;;;2.00;;
66487;SDS011;53304;54.550;18.526;2024-03-23T04:58:42;7.78;;;2.20;;
66487;SDS011;53304;54.550;18.526;2024-03-23T05:01:11;6.50;;;1.98;;
66487;SDS011;53304;54.550;18.526;2024-03-23T05:03:37;5.72;;;1.80;;
66487;SDS011;53304;54.550;18.526;2024-03-23T05:06:02;4.43;;;1.88;;
66487;SDS011;53304;54.550;18.526;2024-03-23T05:08:30;5.57;;;2.00;;
66487;SDS011;53304;54.550;18.526;2024-03-23T05:11:00;5.90;;;1.63;;
66487;SDS011;53304;54.550;18.526;2024-03-23T05:13:26;4.53;;;1.90;;
66487;SDS011;53304;54.550;18.526;2024-03-23T05:15:54;6.10;;;1.77;;
66487;SDS011;53304;54.550;18.526;2024-03-23T05:18:20;4.72;;;1.58;;
66487;SDS011;53304;54.550;18.526;2024-03-23T05:20:55;4.88;;;1.55;;
66487;SDS011;53304;54.550;18.526;2024-03-23T05:23:26;4.30;;;1.63;;
66487;SDS011;53304;54.550;18.526;2024-03-23T05:25:51;5.88;;;1.80;;
66487;SDS011;53304;54.550;18.526;2024-03-23T05:28:17;4.22;;;1.58;;
66487;SDS011;53304;54.550;18.526;2024-03-23T05:30:43;5.85;;;1.75;;
66487;SDS011;53304;54.550;18.526;2024-03-23T05:33:08;5.05;;;1.83;;
66487;SDS011;53304;54.550;18.526;2024-03-23T05:35:36;5.13;;;1.88;;
66487;SDS011;53304;54.550;18.526;2024-03-23T05:38:01;6.22;;;1.67;;
66487;SDS011;53304;54.550;18.526;2024-03-23T05:40:29;4.28;;;1.70;;
66487;SDS011;53304;54.550;18.526;2024-03-23T05:42:58;5.43;;;1.90;;
66487;SDS011;53304;54.550;18.526;2024-03-23T05:45:23;5.93;;;2.00;;
66487;SDS011;53304;54.550;18.526;2024-03-23T05:47:49;5.75;;;1.73;;
66487;SDS011;53304;54.550;18.526;2024-03-23T05:50:14;3.58;;;1.88;;
66487;SDS011;53304;54.550;18.526;2024-03-23T05:52:42;4.38;;;1.60;;
66487;SDS011;53304;54.550;18.526;2024-03-23T05:55:08;7.10;;;1.80;;
66487;SDS011;53304;54.550;18.526;2024-03-23T05:57:36;4.68;;;1.83;;
66487;SDS011;53304;54.550;18.526;2024-03-23T06:00:01;7.50;;;1.90;;
66487;SDS011;53304;54.550;18.526;2024-03-23T06:02:28;5.38;;;1.75;;
66487;SDS011;53304;54.550;18.526;2024-03-23T06:04:54;6.25;;;1.88;;
66487;SDS011;53304;54.550;18.526;2024-03-23T06:07:19;5.65;;;1.92;;
66487;SDS011;53304;54.550;18.526;2024-03-23T06:09:47;4.75;;;1.95;;
66487;SDS011;53304;54.550;18.526;2024-03-23T06:12:16;6.57;;;1.85;;
66487;SDS011;53304;54.550;18.526;2024-03-23T06:14:41;5.88;;;1.90;;
66487;SDS011;53304;54.550;18.526;2024-03-23T06:17:11;5.85;;;1.80;;
66487;SDS011;53304;54.550;18.526;2024-03-23T06:19:39;5.07;;;1.80;;
66487;SDS011;53304;54.550;18.526;2024-03-23T06:22:04;4.82;;;1.88;;
66487;SDS011;53304;54.550;18.526;2024-03-23T06:24:31;4.25;;;1.63;;
66487;SDS011;53304;54.550;18.526;2024-03-23T06:26:57;3.88;;;1.60;;
66487;SDS011;53304;54.550;18.526;2024-03-23T06:29:22;4.30;;;1.77;;
66487;SDS011;53304;54.550;18.526;2024-03-23T06:31:52;5.20;;;2.08;;
66487;SDS011;53304;54.550;18.526;2024-03-23T06:34:19;6.20;;;1.80;;
66487;SDS011;53304;54.550;18.526;2024-03-23T06:36:46;4.95;;;1.90;;
66487;SDS011;53304;54.550;18.526;2024-03-23T06:39:11;5.13;;;1.70;;
66487;SDS011;53304;54.550;18.526;2024-03-23T06:41:40;5.32;;;1.80;;
66487;SDS011;53304;54.550;18.526;2024-03-23T06:44:18;4.47;;;1.92;;
66487;SDS011;53304;54.550;18.526;2024-03-23T06:46:44;5.07;;;1.73;;
66487;SDS011;53304;54.550;18.526;2024-03-23T06:49:09;4.75;;;1.65;;
66487;SDS011;53304;54.550;18.526;2024-03-23T06:51:37;6.88;;;2.15;;
66487;SDS011;53304;54.550;18.526;2024-03-23T06:54:06;4.50;;;1.63;;
66487;SDS011;53304;54.550;18.526;2024-03-23T06:56:31;6.93;;;1.60;;
66487;SDS011;53304;54.550;18.526;2024-03-23T06:58:59;5.70;;;1.77;;
66487;SDS011;53304;54.550;18.526;2024-03-23T07:01:24;4.93;;;1.80;;
66487;SDS011;53304;54.550;18.526;2024-03-23T07:03:53;5.03;;;1.70;;
66487;SDS011;53304;54.550;18.526;2024-03-23T07:06:19;4.03;;;1.50;;
66487;SDS011;53304;54.550;18.526;2024-03-23T07:08:46;5.82;;;1.80;;
66487;SDS011;53304;54.550;18.526;2024-03-23T07:11:12;4.18;;;1.40;;
66487;SDS011;53304;54.550;18.526;2024-03-23T07:13:45;4.15;;;1.40;;
66487;SDS011;53304;54.550;18.526;2024-03-23T07:16:11;4.57;;;1.75;;
66487;SDS011;53304;54.550;18.526;2024-03-23T07:18:39;5.88;;;1.58;;
66487;SDS011;53304;54.550;18.526;2024-03-23T07:21:04;3.95;;;1.75;;
66487;SDS011;53304;54.550;18.526;2024-03-23T07:23:31;5.38;;;1.58;;
66487;SDS011;53304;54.550;18.526;2024-03-23T07:26:01;5.15;;;1.35;;
66487;SDS011;53304;54.550;18.526;2024-03-23T07:28:30;6.18;;;1.90;;
66487;SDS011;53304;54.550;18.526;2024-03-23T07:33:43;6.07;;;2.08;;
66487;SDS011;53304;54.550;18.526;2024-03-23T07:36:10;5.28;;;1.83;;
66487;SDS011;53304;54.550;18.526;2024-03-23T07:38:36;4.90;;;1.80;;
66487;SDS011;53304;54.550;18.526;2024-03-23T07:41:08;4.90;;;1.70;;
66487;SDS011;53304;54.550;18.526;2024-03-23T07:43:39;6.60;;;1.58;;
66487;SDS011;53304;54.550;18.526;2024-03-23T07:46:05;4.50;;;1.90;;
66487;SDS011;53304;54.550;18.526;2024-03-23T07:48:34;4.78;;;1.73;;
66487;SDS011;53304;54.550;18.526;2024-03-23T07:53:29;4.75;;;1.98;;
66487;SDS011;53304;54.550;18.526;2024-03-23T07:56:05;5.10;;;1.80;;
66487;SDS011;53304;54.550;18.526;2024-03-23T07:58:34;5.40;;;1.67;;
66487;SDS011;53304;54.550;18.526;2024-03-23T08:01:05;4.60;;;1.52;;
66487;SDS011;53304;54.550;18.526;2024-03-23T08:03:38;6.10;;;1.80;;
66487;SDS011;53304;54.550;18.526;2024-03-23T08:08:33;7.57;;;1.95;;
66487;SDS011;53304;54.550;18.526;2024-03-23T08:10:58;7.53;;;1.67;;
66487;SDS011;53304;54.550;18.526;2024-03-23T08:13:24;4.90;;;1.40;;
66487;SDS011;53304;54.550;18.526;2024-03-23T08:15:49;5.97;;;2.05;;
66487;SDS011;53304;54.550;18.526;2024-03-23T08:18:17;5.75;;;1.85;;
66487;SDS011;53304;54.550;18.526;2024-03-23T08:20:42;4.38;;;1.50;;
66487;SDS011;53304;54.550;18.526;2024-03-23T08:23:08;5.13;;;2.35;;
66487;SDS011;53304;54.550;18.526;2024-03-23T08:25:34;5.93;;;1.90;;
66487;SDS011;53304;54.550;18.526;2024-03-23T08:28:05;5.50;;;1.95;;
66487;SDS011;53304;54.550;18.526;2024-03-23T08:30:30;6.15;;;2.03;;
66487;SDS011;53304;54.550;18.526;2024-03-23T08:32:58;10.10;;;2.60;;
66487;SDS011;53304;54.550;18.526;2024-03-23T08:35:24;10.50;;;3.03;;
66487;SDS011;53304;54.550;18.526;2024-03-23T08:37:49;11.13;;;3.05;;
66487;SDS011;53304;54.550;18.526;2024-03-23T08:40:17;10.68;;;3.10;;
66487;SDS011;53304;54.550;18.526;2024-03-23T08:42:42;12.55;;;3.33;;
66487;SDS011;53304;54.550;18.526;2024-03-23T08:45:10;8.85;;;2.80;;
66487;SDS011;53304;54.550;18.526;2024-03-23T08:47:36;14.43;;;3.22;;
66487;SDS011;53304;54.550;18.526;2024-03-23T08:50:03;13.25;;;3.35;;
66487;SDS011;53304;54.550;18.526;2024-03-23T08:52:29;8.65;;;3.25;;
66487;SDS011;53304;54.550;18.526;2024-03-23T08:54:55;11.60;;;2.75;;
66487;SDS011;53304;54.550;18.526;2024-03-23T08:57:22;11.68;;;3.20;;
66487;SDS011;53304;54.550;18.526;2024-03-23T08:59:50;13.18;;;3.42;;
66487;SDS011;53304;54.550;18.526;2024-03-23T09:02:15;8.02;;;2.60;;
66487;SDS011;53304;54.550;18.526;2024-03-23T09:04:43;16.05;;;3.58;;
66487;SDS011;53304;54.550;18.526;2024-03-23T09:07:09;10.50;;;2.85;;
66487;SDS011;53304;54.550;18.526;2024-03-23T09:09:34;12.32;;;3.17;;
66487;SDS011;53304;54.550;18.526;2024-03-23T09:12:01;9.27;;;3.17;;
66487;SDS011;53304;54.550;18.526;2024-03-23T09:14:29;12.02;;;2.97;;
66487;SDS011;53304;54.550;18.526;2024-03-23T09:16:54;11.57;;;2.83;;
66487;SDS011;53304;54.550;18.526;2024-03-23T09:19:20;12.65;;;2.88;;
66487;SDS011;53304;54.550;18.526;2024-03-23T09:21:45;11.85;;;3.85;;
66487;SDS011;53304;54.550;18.526;2024-03-23T09:24:11;14.23;;;3.45;;
66487;SDS011;53304;54.550;18.526;2024-03-23T09:26:38;12.77;;;2.72;;
66487;SDS011;53304;54.550;18.526;2024-03-23T09:29:04;13.20;;;3.58;;
66487;SDS011;53304;54.550;18.526;2024-03-23T09:31:29;12.75;;;3.40;;
66487;SDS011;53304;54.550;18.526;2024-03-23T09:33:56;11.75;;;3.10;;
66487;SDS011;53304;54.550;18.526;2024-03-23T09:36:23;11.48;;;2.90;;
66487;SDS011;53304;54.550;18.526;2024-03-23T09:38:50;12.52;;;3.28;;
66487;SDS011;53304;54.550;18.526;2024-03-23T09:41:18;10.57;;;2.97;;
66487;SDS011;53304;54.550;18.526;2024-03-23T09:43:46;9.20;;;2.70;;
66487;SDS011;53304;54.550;18.526;2024-03-23T09:46:13;13.15;;;2.42;;
66487;SDS011;53304;54.550;18.526;2024-03-23T09:48:39;12.07;;;3.60;;
66487;SDS011;53304;54.550;18.526;2024-03-23T09:51:04;9.85;;;3.42;;
66487;SDS011;53304;54.550;18.526;2024-03-23T09:53:36;12.43;;;3.15;;
66487;SDS011;53304;54.550;18.526;2024-03-23T09:56:04;10.02;;;2.75;;
66487;SDS011;53304;54.550;18.526;2024-03-23T09:58:30;8.65;;;2.40;;
66487;SDS011;53304;54.550;18.526;2024-03-23T10:00:57;11.25;;;2.95;;
66487;SDS011;53304;54.550;18.526;2024-03-23T10:03:22;7.80;;;2.40;;
66487;SDS011;53304;54.550;18.526;2024-03-23T10:05:48;11.13;;;2.33;;
66487;SDS011;53304;54.550;18.526;2024-03-23T10:08:28;16.40;;;3.25;;
66487;SDS011;53304;54.550;18.526;2024-03-23T10:10:54;12.02;;;2.72;;
66487;SDS011;53304;54.550;18.526;2024-03-23T10:13:28;7.95;;;2.60;;
66487;SDS011;53304;54.550;18.526;2024-03-23T10:15:57;12.88;;;3.08;;
66487;SDS011;53304;54.550;18.526;2024-03-23T10:18:23;14.68;;;2.85;;
66487;SDS011;53304;54.550;18.526;2024-03-23T10:23:31;12.15;;;3.85;;
66487;SDS011;53304;54.550;18.526;2024-03-23T10:31:40;10.93;;;3.78;;
66487;SDS011;53304;54.550;18.526;2024-03-23T10:34:08;11.35;;;3.75;;
66487;SDS011;53304;54.550;18.526;2024-03-23T10:36:34;14.13;;;3.67;;
66487;SDS011;53304;54.550;18.526;2024-03-23T10:38:59;14.93;;;4.30;;
66487;SDS011;53304;54.550;18.526;2024-03-23T10:41:31;12.48;;;3.75;;
66487;SDS011;53304;54.550;18.526;2024-03-23T10:43:57;11.40;;;3.80;;
66487;SDS011;53304;54.550;18.526;2024-03-23T10:46:23;13.15;;;3.63;;
66487;SDS011;53304;54.550;18.526;2024-03-23T10:48:51;11.68;;;3.25;;
66487;SDS011;53304;54.550;18.526;2024-03-23T10:51:18;10.43;;;2.85;;
66487;SDS011;53304;54.550;18.526;2024-03-23T10:53:47;10.98;;;2.78;;
66487;SDS011;53304;54.550;18.526;2024-03-23T10:56:12;7.65;;;2.75;;
66487;SDS011;53304;54.550;18.526;2024-03-23T11:01:05;8.85;;;3.20;;
66487;SDS011;53304;54.550;18.526;2024-03-23T11:03:36;11.68;;;2.92;;
66487;SDS011;53304;54.550;18.526;2024-03-23T11:06:05;8.15;;;2.80;;
66487;SDS011;53304;54.550;18.526;2024-03-23T11:08:36;10.80;;;3.05;;
66487;SDS011;53304;54.550;18.526;2024-03-23T11:13:38;8.43;;;2.63;;
66487;SDS011;53304;54.550;18.526;2024-03-23T11:16:12;9.15;;;2.50;;
66487;SDS011;53304;54.550;18.526;2024-03-23T11:18:41;9.57;;;2.40;;
66487;SDS011;53304;54.550;18.526;2024-03-23T11:21:07;7.50;;;2.53;;
66487;SDS011;53304;54.550;18.526;2024-03-23T11:23:33;10.02;;;2.80;;
66487;SDS011;53304;54.550;18.526;2024-03-23T11:25:58;9.38;;;2.90;;
66487;SDS011;53304;54.550;18.526;2024-03-23T11:28:24;7.25;;;2.17;;
66487;SDS011;53304;54.550;18.526;2024-03-23T11:30:52;9.35;;;2.88;;
66487;SDS011;53304;54.550;18.526;2024-03-23T11:33:22;7.22;;;1.92;;
66487;SDS011;53304;54.550;18.526;2024-03-23T11:35:54;6.35;;;2.42;;
66487;SDS011;53304;54.550;18.526;2024-03-23T11:38:19;12.75;;;2.33;;
66487;SDS011;53304;54.550;18.526;2024-03-23T11:40:45;10.88;;;3.00;;
66487;SDS011;53304;54.550;18.526;2024-03-23T11:43:16;9.02;;;2.67;;
66487;SDS011;53304;54.550;18.526;2024-03-23T11:45:43;9.18;;;2.70;;
66487;SDS011;53304;54.550;18.526;2024-03-23T11:50:39;13.10;;;4.32;;
66487;SDS011;53304;54.550;18.526;2024-03-23T11:53:17;10.82;;;4.25;;
66487;SDS011;53304;54.550;18.526;2024-03-23T11:58:17;14.55;;;5.32;;
66487;SDS011;53304;54.550;18.526;2024-03-23T12:00:49;13.68;;;5.20;;
66487;SDS011;53304;54.550;18.526;2024-03-23T12:03:18;11.90;;;4.97;;
66487;SDS011;53304;54.550;18.526;2024-03-23T12:05:49;15.70;;;6.35;;
66487;SDS011;53304;54.550;18.526;2024-03-23T12:08:19;12.88;;;5.28;;
66487;SDS011;53304;54.550;18.526;2024-03-23T12:10:47;13.10;;;5.90;;
66487;SDS011;53304;54.550;18.526;2024-03-23T12:13:17;14.73;;;6.20;;
66487;SDS011;53304;54.550;18.526;2024-03-23T12:15:44;13.13;;;5.75;;
66487;SDS011;53304;54.550;18.526;2024-03-23T12:18:12;18.67;;;5.00;;
66487;SDS011;53304;54.550;18.526;2024-03-23T12:20:38;11.07;;;5.15;;
66487;SDS011;53304;54.550;18.526;2024-03-23T12:25:32;10.45;;;4.80;;
66487;SDS011;53304;54.550;18.526;2024-03-23T12:28:03;11.98;;;5.30;;
66487;SDS011;53304;54.550;18.526;2024-03-23T12:30:31;12.45;;;4.95;;
66487;SDS011;53304;54.550;18.526;2024-03-23T12:33:05;11.13;;;4.95;;
66487;SDS011;53304;54.550;18.526;2024-03-23T12:35:33;11.57;;;5.30;;
66487;SDS011;53304;54.550;18.526;2024-03-23T12:37:59;12.88;;;5.05;;
66487;SDS011;53304;54.550;18.526;2024-03-23T12:40:24;11.57;;;4.97;;
66487;SDS011;53304;54.550;18.526;2024-03-23T12:42:50;11.25;;;4.70;;
66487;SDS011;53304;54.550;18.526;2024-03-23T12:45:15;10.60;;;4.50;;
66487;SDS011;53304;54.550;18.526;2024-03-23T12:47:40;11.27;;;4.40;;
66487;SDS011;53304;54.550;18.526;2024-03-23T12:50:06;14.25;;;5.30;;
66487;SDS011;53304;54.550;18.526;2024-03-23T12:52:35;11.13;;;4.72;;
66487;SDS011;53304;54.550;18.526;2024-03-23T12:55:01;9.63;;;4.50;;
66487;SDS011;53304;54.550;18.526;2024-03-23T12:57:28;11.52;;;4.40;;
66487;SDS011;53304;54.550;18.526;2024-03-23T12:59:53;13.05;;;4.80;;
66487;SDS011;53304;54.550;18.526;2024-03-23T13:02:22;10.50;;;4.30;;
66487;SDS011;53304;54.550;18.526;2024-03-23T13:04:53;9.98;;;4.40;;
66487;SDS011;53304;54.550;18.526;2024-03-23T13:07:22;10.10;;;4.45;;
66487;SDS011;53304;54.550;18.526;2024-03-23T13:09:51;8.93;;;4.15;;
66487;SDS011;53304;54.550;18.526;2024-03-23T13:12:18;10.52;;;3.83;;
66487;SDS011;53304;54.550;18.526;2024-03-23T13:14:44;12.43;;;4.30;;
66487;SDS011;53304;54.550;18.526;2024-03-23T13:17:10;10.23;;;3.97;;
66487;SDS011;53304;54.550;18.526;2024-03-23T13:19:36;12.57;;;5.13;;
66487;SDS011;53304;54.550;18.526;2024-03-23T13:22:03;10.30;;;3.97;;
66487;SDS011;53304;54.550;18.526;2024-03-23T13:24:29;11.52;;;4.30;;
66487;SDS011;53304;54.550;18.526;2024-03-23T13:26:55;10.10;;;3.90;;
66487;SDS011;53304;54.550;18.526;2024-03-23T13:29:21;9.73;;;4.07;;
66487;SDS011;53304;54.550;18.526;2024-03-23T13:31:50;9.88;;;4.00;;
66487;SDS011;53304;54.550;18.526;2024-03-23T13:34:16;9.68;;;3.75;;
66487;SDS011;53304;54.550;18.526;2024-03-23T13:36:42;9.40;;;3.67;;
66487;SDS011;53304;54.550;18.526;2024-03-23T13:39:11;11.25;;;4.60;;
66487;SDS011;53304;54.550;18.526;2024-03-23T13:41:37;8.77;;;3.50;;
66487;SDS011;53304;54.550;18.526;2024-03-23T13:44:04;9.85;;;3.42;;
66487;SDS011;53304;54.550;18.526;2024-03-23T13:46:30;10.98;;;3.75;;
66487;SDS011;53304;54.550;18.526;2024-03-23T13:48:55;10.07;;;3.92;;
66487;SDS011;53304;54.550;18.526;2024-03-23T13:51:24;9.10;;;3.55;;
66487;SDS011;53304;54.550;18.526;2024-03-23T13:53:53;10.07;;;3.83;;
66487;SDS011;53304;54.550;18.526;2024-03-23T13:56:19;13.73;;;4.13;;
66487;SDS011;53304;54.550;18.526;2024-03-23T13:58:45;9.55;;;3.63;;
66487;SDS011;53304;54.550;18.526;2024-03-23T14:01:14;11.90;;;3.47;;
66487;SDS011;53304;54.550;18.526;2024-03-23T14:03:40;12.73;;;4.00;;
66487;SDS011;53304;54.550;18.526;2024-03-23T14:06:09;10.25;;;4.10;;
66487;SDS011;53304;54.550;18.526;2024-03-23T14:08:38;13.95;;;4.40;;
66487;SDS011;53304;54.550;18.526;2024-03-23T14:11:07;11.27;;;3.87;;
66487;SDS011;53304;54.550;18.526;2024-03-23T14:13:38;10.38;;;3.65;;
66487;SDS011;53304;54.550;18.526;2024-03-23T14:16:03;9.75;;;3.85;;
66487;SDS011;53304;54.550;18.526;2024-03-23T14:18:29;9.05;;;4.00;;
66487;SDS011;53304;54.550;18.526;2024-03-23T14:20:59;11.93;;;4.55;;
66487;SDS011;53304;54.550;18.526;2024-03-23T14:23:28;12.65;;;4.20;;
66487;SDS011;53304;54.550;18.526;2024-03-23T14:25:55;10.98;;;4.22;;
66487;SDS011;53304;54.550;18.526;2024-03-23T14:28:23;12.98;;;4.50;;
66487;SDS011;53304;54.550;18.526;2024-03-23T14:30:49;14.20;;;4.63;;
66487;SDS011;53304;54.550;18.526;2024-03-23T14:33:18;11.23;;;4.28;;
66487;SDS011;53304;54.550;18.526;2024-03-23T14:35:51;13.60;;;4.57;;
66487;SDS011;53304;54.550;18.526;2024-03-23T14:38:18;15.20;;;4.25;;
66487;SDS011;53304;54.550;18.526;2024-03-23T14:40:43;16.63;;;5.00;;
66487;SDS011;53304;54.550;18.526;2024-03-23T14:43:11;12.95;;;4.53;;
66487;SDS011;53304;54.550;18.526;2024-03-23T14:45:37;13.02;;;4.88;;
66487;SDS011;53304;54.550;18.526;2024-03-23T14:48:10;15.93;;;5.30;;
66487;SDS011;53304;54.550;18.526;2024-03-23T14:50:36;11.45;;;4.32;;
66487;SDS011;53304;54.550;18.526;2024-03-23T14:53:04;17.30;;;4.97;;
66487;SDS011;53304;54.550;18.526;2024-03-23T14:55:34;13.40;;;4.63;;
66487;SDS011;53304;54.550;18.526;2024-03-23T14:57:59;10.18;;;4.20;;
66487;SDS011;53304;54.550;18.526;2024-03-23T15:00:26;13.40;;;4.40;;
66487;SDS011;53304;54.550;18.526;2024-03-23T15:02:51;12.00;;;4.63;;
66487;SDS011;53304;54.550;18.526;2024-03-23T15:05:17;13.82;;;5.22;;
66487;SDS011;53304;54.550;18.526;2024-03-23T15:07:43;17.23;;;4.88;;
66487;SDS011;53304;54.550;18.526;2024-03-23T15:10:08;13.10;;;4.28;;
66487;SDS011;53304;54.550;18.526;2024-03-23T15:12:35;14.20;;;4.47;;
66487;SDS011;53304;54.550;18.526;2024-03-23T15:15:00;12.40;;;4.47;;
66487;SDS011;53304;54.550;18.526;2024-03-23T15:17:26;14.63;;;4.35;;
66487;SDS011;53304;54.550;18.526;2024-03-23T15:19:51;11.10;;;4.72;;
66487;SDS011;53304;54.550;18.526;2024-03-23T15:22:18;13.20;;;4.03;;
66487;SDS011;53304;54.550;18.526;2024-03-23T15:24:44;11.73;;;3.78;;
66487;SDS011;53304;54.550;18.526;2024-03-23T15:27:09;13.15;;;4.57;;
66487;SDS011;53304;54.550;18.526;2024-03-23T15:29:37;14.30;;;4.25;;
66487;SDS011;53304;54.550;18.526;2024-03-23T15:32:03;12.90;;;3.90;;
66487;SDS011;53304;54.550;18.526;2024-03-23T15:34:29;13.65;;;4.68;;
66487;SDS011;53304;54.550;18.526;2024-03-23T15:36:54;12.18;;;3.70;;
66487;SDS011;53304;54.550;18.526;2024-03-23T15:39:20;12.10;;;3.72;;
66487;SDS011;53304;54.550;18.526;2024-03-23T15:41:46;9.45;;;3.45;;
66487;SDS011;53304;54.550;18.526;2024-03-23T15:44:16;11.57;;;3.97;;
66487;SDS011;53304;54.550;18.526;2024-03-23T15:46:44;10.60;;;3.75;;
66487;SDS011;53304;54.550;18.526;2024-03-23T15:49:09;12.05;;;3.95;;